Time;durP1;ratioP1;P1;durP2;ratioP2;P2;SDS_P1;SDS_P2;PMS_P1;PMS_P2;Temp;Humidity;BMP_temperature;BMP_pressure;BME280_temperature;BME280_humidity;BME280_pressure;Samples;Min_cycle;Max_cycle;Signal;HPM_P1;HPM_P2
2022/10/25 00:00:11;;;;;;;17.00;10.77;;;23.90;58.10;;;;;;6230976;28;83726;-54
2022/10/25 00:03:15;;;;;;;16.88;10.73;;;23.80;58.10;;;;;;6225166;28;83124;-55
2022/10/25 00:06:15;;;;;;;15.30;10.10;;;23.90;58.20;;;;;;6222331;28;83312;-55
2022/10/25 00:09:16;;;;;;;16.88;10.85;;;23.90;58.20;;;;;;6221645;28;83230;-54
2022/10/25 00:12:16;;;;;;;17.65;10.50;;;23.90;58.20;;;;;;6204295;28;84178;-55
2022/10/25 00:15:17;;;;;;;20.58;11.07;;;23.90;58.20;;;;;;6221448;28;83629;-55
2022/10/25 00:18:17;;;;;;;19.80;11.10;;;23.90;58.20;;;;;;6224405;28;82928;-56
2022/10/25 00:21:18;;;;;;;13.82;10.40;;;23.90;58.20;;;;;;6223354;28;83235;-56
2022/10/25 00:24:18;;;;;;;15.73;10.38;;;23.80;58.20;;;;;;6221725;28;82833;-57
2022/10/25 00:27:19;;;;;;;16.23;10.48;;;23.80;58.30;;;;;;6222991;28;83487;-56
2022/10/25 00:30:19;;;;;;;19.25;10.30;;;23.80;58.20;;;;;;6221834;28;82998;-53
2022/10/25 00:33:20;;;;;;;13.55;9.50;;;23.80;58.20;;;;;;6220072;28;86049;-56
2022/10/25 00:36:20;;;;;;;15.18;9.25;;;23.80;58.20;;;;;;6217999;28;82910;-56
2022/10/25 00:39:21;;;;;;;15.68;9.60;;;23.80;58.40;;;;;;6224160;28;80981;-57
2022/10/25 00:42:21;;;;;;;16.98;10.38;;;23.80;58.30;;;;;;6238198;28;80701;-57
2022/10/25 00:45:22;;;;;;;14.88;9.30;;;23.90;58.40;;;;;;6232140;27;83409;-58
2022/10/25 00:48:22;;;;;;;13.50;9.77;;;23.80;58.30;;;;;;6221107;28;82863;-56
2022/10/25 00:51:23;;;;;;;15.73;9.70;;;23.80;58.40;;;;;;6218686;27;80293;-55
2022/10/25 00:54:23;;;;;;;15.88;9.63;;;23.80;58.30;;;;;;6227768;28;80257;-56
2022/10/25 00:57:24;;;;;;;13.52;9.32;;;23.80;58.40;;;;;;6222146;28;81604;-49
2022/10/25 01:00:24;;;;;;;17.33;9.82;;;23.80;58.40;;;;;;6224828;28;80952;-51
2022/10/25 01:03:25;;;;;;;15.95;9.60;;;23.80;58.40;;;;;;6225356;28;82391;-50
2022/10/25 01:06:25;;;;;;;14.65;9.60;;;23.80;58.30;;;;;;6224205;28;85375;-50
2022/10/25 01:09:26;;;;;;;14.63;9.45;;;23.80;58.50;;;;;;6223618;28;80504;-50
2022/10/25 01:12:26;;;;;;;13.98;8.75;;;23.80;58.50;;;;;;6210159;28;80727;-49
2022/10/25 01:15:27;;;;;;;14.43;9.15;;;23.80;58.50;;;;;;6227749;28;81264;-50
2022/10/25 01:18:27;;;;;;;14.48;9.65;;;23.80;58.50;;;;;;6221677;28;80601;-49
2022/10/25 01:21:28;;;;;;;14.68;9.05;;;23.80;58.50;;;;;;6221547;28;81627;-53
2022/10/25 01:24:28;;;;;;;15.65;9.35;;;23.80;58.50;;;;;;6225257;28;80693;-51
2022/10/25 01:27:29;;;;;;;15.93;9.18;;;23.80;58.60;;;;;;6224138;28;80126;-52
2022/10/25 01:30:29;;;;;;;12.27;9.20;;;23.80;58.60;;;;;;6222721;28;80364;-49
2022/10/25 01:33:30;;;;;;;14.40;9.13;;;23.80;58.60;;;;;;6222742;28;83795;-64
2022/10/25 01:36:30;;;;;;;16.08;10.13;;;23.80;58.60;;;;;;6224238;28;80774;-63
2022/10/25 01:39:31;;;;;;;13.48;9.43;;;23.80;58.60;;;;;;6219413;28;82860;-63
2022/10/25 01:42:31;;;;;;;14.95;9.05;;;23.80;58.60;;;;;;6223383;28;81733;-64
2022/10/25 01:45:32;;;;;;;13.60;8.98;;;23.80;58.60;;;;;;6226804;28;80704;-64
2022/10/25 01:48:32;;;;;;;13.32;9.05;;;23.80;58.70;;;;;;6220878;28;82440;-63
2022/10/25 01:51:33;;;;;;;13.18;8.75;;;23.80;58.50;;;;;;6224497;28;80417;-64
2022/10/25 01:54:33;;;;;;;14.15;8.52;;;23.80;58.60;;;;;;6238792;28;82982;-64
2022/10/25 01:57:34;;;;;;;12.02;8.90;;;23.80;58.70;;;;;;6223433;28;80604;-64
2022/10/25 02:00:34;;;;;;;13.38;8.43;;;23.80;58.70;;;;;;6225834;28;82643;-64
2022/10/25 02:03:35;;;;;;;13.95;8.75;;;23.80;58.70;;;;;;6223488;28;80893;-64
2022/10/25 02:06:36;;;;;;;15.82;8.90;;;23.80;58.80;;;;;;6223095;28;86682;-63
2022/10/25 02:09:36;;;;;;;12.20;7.78;;;23.80;58.70;;;;;;6207324;28;80621;-64
2022/10/25 02:12:37;;;;;;;12.45;8.30;;;23.80;58.80;;;;;;6209982;28;80480;-64
2022/10/25 02:15:37;;;;;;;14.13;8.50;;;23.80;58.80;;;;;;6240857;28;80392;-64
2022/10/25 02:18:37;;;;;;;12.32;7.70;;;23.70;58.80;;;;;;6221084;27;80874;-65
2022/10/25 02:21:38;;;;;;;13.20;8.13;;;23.80;58.90;;;;;;6227050;28;80324;-64
2022/10/25 02:24:39;;;;;;;12.13;8.27;;;23.80;59.60;;;;;;6220622;28;84425;-64
2022/10/25 02:27:39;;;;;;;12.52;8.30;;;23.70;59.00;;;;;;6227088;28;81187;-58
2022/10/25 02:30:40;;;;;;;11.65;7.95;;;23.80;59.00;;;;;;6221721;28;80323;-59
2022/10/25 02:33:40;;;;;;;12.48;7.68;;;23.80;59.00;;;;;;6223348;28;84127;-60
2022/10/25 02:36:41;;;;;;;11.05;7.82;;;23.70;58.80;;;;;;6208908;28;80906;-58
2022/10/25 02:39:41;;;;;;;15.05;8.43;;;23.80;58.90;;;;;;6200288;28;82059;-60
2022/10/25 02:42:42;;;;;;;13.30;7.95;;;23.80;58.90;;;;;;6205551;28;81467;-59
2022/10/25 02:45:43;;;;;;;10.80;7.43;;;23.80;58.90;;;;;;6219143;28;83335;-59
2022/10/25 02:48:43;;;;;;;14.30;8.45;;;23.70;58.80;;;;;;6221370;28;82610;-57
2022/10/25 02:51:44;;;;;;;13.13;8.75;;;23.80;58.90;;;;;;6221996;28;86846;-58
2022/10/25 02:54:44;;;;;;;15.05;9.20;;;23.70;58.80;;;;;;6225415;28;80919;-59
2022/10/25 02:57:45;;;;;;;14.05;8.73;;;23.80;58.70;;;;;;6220742;28;85779;-58
2022/10/25 03:00:45;;;;;;;14.25;8.63;;;23.70;58.80;;;;;;6222887;28;80607;-59
2022/10/25 03:03:46;;;;;;;12.77;7.82;;;23.70;58.80;;;;;;6220842;28;80470;-59
2022/10/25 03:06:46;;;;;;;11.50;7.97;;;23.70;58.80;;;;;;6222616;28;80661;-59
2022/10/25 03:09:47;;;;;;;13.27;7.53;;;23.70;58.80;;;;;;6190015;28;82263;-59
2022/10/25 03:12:47;;;;;;;14.43;8.65;;;23.70;58.90;;;;;;6221243;28;81115;-59
2022/10/25 03:15:48;;;;;;;13.63;8.05;;;23.70;58.80;;;;;;6224946;28;86625;-58
2022/10/25 03:18:48;;;;;;;14.65;8.48;;;23.70;58.90;;;;;;6222683;28;80618;-58
2022/10/25 03:21:49;;;;;;;11.00;7.82;;;23.70;58.90;;;;;;6222146;28;80362;-62
2022/10/25 03:24:49;;;;;;;10.65;7.72;;;23.70;58.80;;;;;;6220746;28;80511;-63
2022/10/25 03:27:50;;;;;;;14.60;8.15;;;23.70;59.40;;;;;;6221747;28;81339;-64
2022/10/25 03:30:50;;;;;;;11.70;7.10;;;23.80;58.70;;;;;;6225402;28;80467;-62
2022/10/25 03:33:51;;;;;;;12.27;7.75;;;23.80;58.70;;;;;;6221117;28;81370;-62
2022/10/25 03:36:51;;;;;;;13.88;8.23;;;23.80;58.50;;;;;;6228064;28;81173;-64
2022/10/25 03:39:53;;;;;;;13.82;8.38;;;23.90;58.40;;;;;;6224906;28;83563;-63
2022/10/25 03:42:53;;;;;;;18.30;8.25;;;23.90;58.40;;;;;;6238877;28;80154;-64
2022/10/25 03:45:54;;;;;;;11.20;8.18;;;23.90;58.30;;;;;;6224822;28;81487;-64
2022/10/25 03:48:54;;;;;;;14.32;8.27;;;24.00;58.30;;;;;;6231084;28;80595;-63
2022/10/25 03:51:54;;;;;;;12.73;8.27;;;24.00;58.50;;;;;;6231570;28;80359;-62
2022/10/25 03:54:55;;;;;;;15.00;8.20;;;24.00;58.70;;;;;;6234163;27;80404;-63
2022/10/25 03:57:56;;;;;;;10.10;7.03;;;24.00;58.40;;;;;;6226977;28;81218;-62
2022/10/25 04:00:56;;;;;;;9.80;7.20;;;24.10;58.60;;;;;;6224914;28;80095;-64
2022/10/25 04:03:57;;;;;;;13.52;7.65;;;24.00;58.70;;;;;;6226871;28;80490;-63
2022/10/25 04:06:57;;;;;;;11.55;7.07;;;24.10;58.80;;;;;;6223838;28;84518;-64
2022/10/25 04:09:58;;;;;;;13.80;7.50;;;24.10;58.70;;;;;;6224745;28;80105;-63
2022/10/25 04:12:58;;;;;;;9.50;6.55;;;24.10;58.40;;;;;;6231159;28;80494;-65
2022/10/25 04:15:59;;;;;;;15.20;7.38;;;24.10;58.40;;;;;;6226624;27;81844;-62
2022/10/25 04:18:59;;;;;;;10.10;6.65;;;24.10;58.60;;;;;;6216733;28;84811;-61
2022/10/25 04:22:01;;;;;;;11.15;6.57;;;24.10;58.60;;;;;;6224116;28;80147;-61
2022/10/25 04:25:01;;;;;;;16.38;7.40;;;24.10;58.70;;;;;;6225018;28;80470;-63
2022/10/25 04:28:03;;;;;;;11.77;6.63;;;24.10;58.80;;;;;;6224368;28;88477;-61
2022/10/25 04:31:03;;;;;;;9.20;5.95;;;24.10;58.80;;;;;;6223848;28;80308;-60
2022/10/25 04:34:04;;;;;;;9.27;6.25;;;24.20;58.90;;;;;;6223991;28;80612;-62
2022/10/25 04:37:04;;;;;;;10.15;5.90;;;24.20;58.90;;;;;;6206235;28;81384;-61
2022/10/25 04:40:05;;;;;;;10.63;6.05;;;24.20;58.90;;;;;;6229440;28;81113;-60
2022/10/25 04:43:05;;;;;;;16.02;6.22;;;24.20;58.90;;;;;;6221265;28;80247;-59
2022/10/25 04:46:06;;;;;;;13.95;6.22;;;24.20;58.90;;;;;;6212044;28;87498;-60
2022/10/25 04:49:07;;;;;;;10.85;6.15;;;24.20;58.90;;;;;;6216554;28;80905;-63
2022/10/25 04:52:07;;;;;;;11.88;6.57;;;24.20;58.80;;;;;;6215769;28;81552;-62
2022/10/25 04:55:08;;;;;;;10.05;6.18;;;24.30;58.80;;;;;;6207470;28;80462;-63
2022/10/25 04:58:08;;;;;;;11.18;6.55;;;24.30;58.80;;;;;;6226590;28;80862;-60
2022/10/25 05:01:09;;;;;;;13.85;6.30;;;24.30;58.90;;;;;;6222448;28;80707;-62
2022/10/25 05:04:09;;;;;;;18.30;7.20;;;24.30;59.00;;;;;;6220099;28;81376;-64
2022/10/25 05:07:10;;;;;;;19.38;6.05;;;24.40;59.00;;;;;;6219949;28;81908;-62
2022/10/25 05:10:10;;;;;;;19.58;6.65;;;24.40;58.70;;;;;;6221961;28;80199;-61
2022/10/25 05:13:11;;;;;;;15.57;6.78;;;24.30;58.60;;;;;;6221217;28;83600;-63
2022/10/25 05:16:11;;;;;;;12.80;7.03;;;24.30;58.60;;;;;;6218351;28;80622;-64
2022/10/25 05:19:12;;;;;;;18.17;6.65;;;24.30;58.50;;;;;;6202876;28;87081;-63
2022/10/25 05:22:12;;;;;;;19.25;6.93;;;24.30;58.40;;;;;;6220262;28;80652;-64
2022/10/25 05:25:13;;;;;;;17.48;6.75;;;24.40;58.40;;;;;;6220427;28;80753;-63
2022/10/25 05:28:13;;;;;;;11.18;6.70;;;24.30;58.70;;;;;;6210496;28;80596;-63
2022/10/25 05:31:14;;;;;;;17.38;7.72;;;24.30;58.70;;;;;;6222816;28;80492;-62
2022/10/25 05:34:15;;;;;;;15.45;7.15;;;24.30;59.40;;;;;;6224215;28;82217;-63
2022/10/25 05:37:15;;;;;;;13.85;8.32;;;24.30;59.60;;;;;;6218646;28;81126;-63
2022/10/25 05:40:16;;;;;;;15.95;8.35;;;24.40;59.80;;;;;;6215959;28;84246;-61
2022/10/25 05:43:16;;;;;;;17.88;8.15;;;24.40;59.40;;;;;;6220187;28;80866;-61
2022/10/25 05:46:17;;;;;;;14.95;8.32;;;24.30;59.30;;;;;;6232599;28;86718;-61
2022/10/25 05:49:17;;;;;;;18.35;8.32;;;24.40;59.30;;;;;;6221779;28;80598;-62
2022/10/25 05:52:18;;;;;;;15.45;8.65;;;24.40;59.30;;;;;;6224752;28;80131;-63
2022/10/25 05:55:18;;;;;;;21.05;7.80;;;24.40;59.30;;;;;;6225985;28;81174;-62
2022/10/25 05:58:19;;;;;;;24.15;8.27;;;24.40;59.30;;;;;;6225797;28;80811;-63
2022/10/25 06:01:19;;;;;;;17.67;7.75;;;24.40;59.20;;;;;;6215300;28;80768;-64
2022/10/25 06:04:20;;;;;;;13.15;7.63;;;24.50;59.10;;;;;;6207843;28;80623;-66
2022/10/25 06:07:20;;;;;;;11.35;7.57;;;24.50;59.00;;;;;;6216203;28;80150;-62
2022/10/25 06:10:21;;;;;;;15.63;7.78;;;24.50;58.80;;;;;;6208394;28;81498;-63
2022/10/25 06:13:22;;;;;;;17.17;7.75;;;24.50;58.90;;;;;;6219856;28;80414;-60
2022/10/25 06:16:22;;;;;;;15.23;8.27;;;24.50;58.80;;;;;;6219004;28;80966;-63
2022/10/25 06:19:23;;;;;;;11.95;7.95;;;24.50;58.20;;;;;;6215416;28;80630;-61
2022/10/25 06:22:23;;;;;;;16.35;8.65;;;24.40;58.10;;;;;;6218918;28;80946;-62
2022/10/25 06:25:24;;;;;;;38.97;21.45;;;24.30;58.00;;;;;;6220937;28;83035;-61
2022/10/25 06:28:24;;;;;;;72.65;42.65;;;24.30;58.60;;;;;;6213720;28;83062;-59
2022/10/25 06:31:25;;;;;;;141.82;78.22;;;24.30;58.60;;;;;;6220470;28;83055;-59
2022/10/25 06:34:25;;;;;;;168.20;95.40;;;24.20;58.00;;;;;;6217500;28;83402;-59
2022/10/25 06:37:26;;;;;;;224.98;128.80;;;24.20;58.00;;;;;;6218075;28;82996;-57
2022/10/25 06:40:26;;;;;;;240.00;139.00;;;24.20;58.40;;;;;;6218283;28;85877;-58
2022/10/25 06:43:27;;;;;;;213.48;122.20;;;24.20;58.10;;;;;;6217177;28;87290;-56
2022/10/25 06:46:27;;;;;;;161.10;93.70;;;24.10;58.00;;;;;;6216779;28;85645;-57
2022/10/25 06:49:28;;;;;;;129.77;71.25;;;24.00;57.80;;;;;;6215225;28;86957;-56
2022/10/25 06:52:28;;;;;;;91.90;53.65;;;24.00;58.10;;;;;;6216674;28;83143;-58
2022/10/25 06:55:29;;;;;;;85.30;44.33;;;24.00;58.10;;;;;;6219133;28;83867;-57
2022/10/25 06:58:30;;;;;;;63.63;32.85;;;23.80;58.30;;;;;;6217901;28;84247;-56
2022/10/25 07:01:30;;;;;;;51.53;28.80;;;23.80;58.20;;;;;;6219827;28;86177;-57
2022/10/25 07:04:31;;;;;;;46.95;24.52;;;23.90;58.40;;;;;;6218283;28;83664;-56
2022/10/25 07:07:32;;;;;;;42.83;21.58;;;23.80;58.50;;;;;;6215636;28;83629;-58
2022/10/25 07:10:32;;;;;;;36.08;18.60;;;23.80;58.70;;;;;;6198053;28;83649;-58
2022/10/25 07:13:32;;;;;;;33.80;16.13;;;23.70;58.70;;;;;;6207777;28;83564;-59
2022/10/25 07:16:33;;;;;;;28.30;15.77;;;23.70;58.90;;;;;;6202182;28;90557;-59
2022/10/25 07:19:33;;;;;;;32.53;14.95;;;23.80;59.20;;;;;;6201668;28;83509;-58
2022/10/25 07:22:34;;;;;;;26.00;14.23;;;23.90;58.80;;;;;;6214939;28;83367;-57
2022/10/25 07:25:34;;;;;;;20.80;12.07;;;23.90;58.60;;;;;;6213729;28;82968;-59
2022/10/25 07:28:35;;;;;;;18.00;10.88;;;24.00;58.70;;;;;;6215355;28;86657;-58
2022/10/25 07:31:35;;;;;;;19.88;10.98;;;24.00;58.40;;;;;;6216856;28;86781;-58
2022/10/25 07:34:36;;;;;;;16.67;10.52;;;24.00;58.40;;;;;;6211707;28;87574;-58
2022/10/25 07:37:37;;;;;;;16.92;9.77;;;24.00;58.30;;;;;;6212770;28;89146;-58
2022/10/25 07:40:37;;;;;;;14.32;9.15;;;24.00;58.40;;;;;;6221371;28;84010;-58
2022/10/25 07:43:38;;;;;;;14.25;7.30;;;24.00;58.20;;;;;;6226460;28;81044;-57
2022/10/25 07:46:38;;;;;;;13.23;7.28;;;24.10;58.20;;;;;;6225936;28;80373;-58
2022/10/25 07:49:39;;;;;;;12.98;7.25;;;24.20;58.20;;;;;;6225992;28;80726;-58
2022/10/25 07:52:39;;;;;;;18.38;6.88;;;24.30;58.00;;;;;;6210081;28;81288;-58
2022/10/25 07:55:40;;;;;;;17.85;8.27;;;24.30;57.70;;;;;;6224840;28;84034;-58
2022/10/25 07:58:40;;;;;;;11.80;6.68;;;24.30;57.80;;;;;;6228455;28;80774;-61
2022/10/25 08:01:41;;;;;;;13.02;6.88;;;24.30;57.60;;;;;;6224217;28;80594;-61
2022/10/25 08:04:42;;;;;;;10.75;6.03;;;24.40;57.30;;;;;;6225581;28;80293;-62
2022/10/25 08:07:42;;;;;;;11.95;6.47;;;24.40;57.40;;;;;;6221563;28;80465;-61
2022/10/25 08:10:43;;;;;;;13.35;6.20;;;24.50;57.10;;;;;;6227436;28;80947;-60
2022/10/25 08:13:43;;;;;;;9.25;5.63;;;24.70;57.20;;;;;;6223593;28;82013;-61
2022/10/25 08:16:44;;;;;;;11.73;5.90;;;24.80;56.90;;;;;;6225405;28;80759;-62
2022/10/25 08:19:44;;;;;;;12.13;5.55;;;24.80;56.80;;;;;;6222920;28;80422;-63
2022/10/25 08:22:45;;;;;;;10.40;6.53;;;24.90;56.70;;;;;;6226895;28;80566;-62
2022/10/25 08:25:45;;;;;;;13.48;6.03;;;25.00;56.50;;;;;;6225916;28;82325;-63
2022/10/25 08:28:46;;;;;;;9.48;5.50;;;25.10;56.30;;;;;;6224156;28;80392;-63
2022/10/25 08:31:46;;;;;;;9.18;5.65;;;25.10;56.00;;;;;;6224039;28;83470;-60
2022/10/25 08:34:47;;;;;;;9.45;5.30;;;25.20;56.00;;;;;;6221232;28;80963;-58
2022/10/25 08:37:47;;;;;;;11.00;5.80;;;25.30;55.80;;;;;;6228767;28;80918;-57
2022/10/25 08:40:48;;;;;;;9.27;4.93;;;25.40;55.70;;;;;;6222897;28;84464;-58
2022/10/25 08:43:48;;;;;;;8.73;4.70;;;25.40;55.70;;;;;;6202898;28;80380;-58
2022/10/25 08:46:49;;;;;;;14.15;5.18;;;25.50;55.80;;;;;;6219110;28;81423;-57
2022/10/25 08:49:49;;;;;;;10.10;5.07;;;25.50;55.80;;;;;;6222696;28;80154;-57
2022/10/25 08:52:52;;;;;;;10.98;5.20;;;25.50;55.70;;;;;;6226552;28;80576;-60
2022/10/25 08:55:52;;;;;;;9.98;5.53;;;25.50;55.70;;;;;;6221149;28;81915;-61
2022/10/25 08:58:53;;;;;;;12.13;4.82;;;25.50;55.80;;;;;;6235221;28;81108;-59
2022/10/25 09:01:53;;;;;;;7.32;4.90;;;25.50;55.40;;;;;;6219629;28;81119;-60
2022/10/25 09:04:54;;;;;;;8.65;5.00;;;25.50;55.40;;;;;;6222776;28;81403;-59
2022/10/25 09:07:54;;;;;;;8.65;4.28;;;25.50;55.20;;;;;;6221662;28;80352;-59
2022/10/25 09:10:55;;;;;;;8.52;3.95;;;25.50;55.00;;;;;;6222701;28;83894;-59
2022/10/25 09:13:55;;;;;;;7.05;3.90;;;25.50;54.90;;;;;;6213400;28;81454;-61
2022/10/25 09:16:56;;;;;;;6.32;3.78;;;25.50;54.70;;;;;;6220604;28;80439;-59
2022/10/25 09:19:56;;;;;;;7.35;3.63;;;25.50;54.30;;;;;;6223358;28;80212;-62
2022/10/25 09:22:57;;;;;;;7.20;4.32;;;25.40;54.20;;;;;;6224613;28;82633;-60
2022/10/25 09:25:57;;;;;;;7.68;3.97;;;25.30;53.80;;;;;;6221110;28;80637;-60
2022/10/25 09:29:00;;;;;;;8.27;3.75;;;25.20;54.00;;;;;;6217330;28;86405;-60
2022/10/25 09:32:00;;;;;;;8.38;3.63;;;25.10;53.70;;;;;;6219801;28;80486;-61
2022/10/25 09:35:01;;;;;;;9.10;3.50;;;25.00;53.80;;;;;;6192986;28;81135;-60
2022/10/25 09:38:01;;;;;;;9.82;4.20;;;25.00;53.90;;;;;;6215069;28;85037;-56
2022/10/25 09:41:02;;;;;;;6.57;3.45;;;24.90;53.90;;;;;;6220251;28;81630;-59
2022/10/25 09:44:03;;;;;;;11.85;4.32;;;24.90;54.00;;;;;;6231316;28;80474;-60
2022/10/25 09:47:03;;;;;;;15.50;4.40;;;24.90;54.20;;;;;;6223031;28;80775;-61
2022/10/25 09:50:04;;;;;;;6.65;3.60;;;24.80;54.10;;;;;;6225465;28;80646;-55
2022/10/25 09:53:04;;;;;;;6.75;3.78;;;24.70;54.60;;;;;;6226638;28;80416;-55
2022/10/25 09:56:05;;;;;;;7.30;3.72;;;24.60;54.10;;;;;;6217982;28;80819;-57
2022/10/25 09:59:05;;;;;;;10.05;3.97;;;24.50;54.30;;;;;;6225555;28;81411;-57
2022/10/25 10:02:06;;;;;;;9.85;4.15;;;24.50;54.40;;;;;;6220398;28;80618;-59
2022/10/25 10:05:06;;;;;;;9.40;3.40;;;24.50;54.50;;;;;;6202404;28;84587;-59
2022/10/25 10:08:07;;;;;;;7.60;3.47;;;24.40;54.70;;;;;;6215637;28;80185;-57
2022/10/25 10:11:07;;;;;;;6.50;2.95;;;24.40;55.10;;;;;;6214784;28;84843;-58
2022/10/25 10:14:08;;;;;;;6.32;3.38;;;24.40;55.60;;;;;;6217727;28;81146;-58
2022/10/25 10:17:10;;;;;;;12.50;3.50;;;24.40;55.40;;;;;;6224042;28;82971;-58
2022/10/25 10:20:10;;;;;;;11.50;3.97;;;24.40;55.40;;;;;;6224558;28;80377;-57
2022/10/25 10:23:11;;;;;;;8.55;3.72;;;24.30;55.30;;;;;;6226156;28;80643;-57
2022/10/25 10:26:11;;;;;;;8.63;3.58;;;24.30;55.60;;;;;;6223693;28;80354;-56
2022/10/25 10:29:12;;;;;;;12.55;4.40;;;24.30;55.90;;;;;;6223662;28;81267;-56
2022/10/25 10:32:12;;;;;;;9.63;3.88;;;24.30;56.60;;;;;;6200735;28;81737;-57
2022/10/25 10:35:13;;;;;;;5.57;3.35;;;24.40;56.80;;;;;;6208324;28;85232;-57
2022/10/25 10:38:14;;;;;;;14.85;4.18;;;24.40;56.60;;;;;;6207639;28;80515;-58
2022/10/25 10:41:14;;;;;;;13.10;7.57;;;24.40;57.00;;;;;;6216508;28;81034;-57
2022/10/25 10:44:15;;;;;;;15.18;7.18;;;24.50;57.10;;;;;;6216560;28;80729;-57
2022/10/25 10:47:16;;;;;;;17.30;5.88;;;24.50;57.00;;;;;;6213099;28;80805;-58
2022/10/25 10:50:16;;;;;;;11.63;5.50;;;24.50;56.90;;;;;;6213704;28;80538;-57
2022/10/25 10:53:19;;;;;;;12.32;5.00;;;24.50;56.50;;;;;;6224281;28;80863;-56
2022/10/25 10:56:20;;;;;;;8.10;4.45;;;24.60;56.20;;;;;;6228685;28;80762;-56
2022/10/25 10:59:20;;;;;;;7.45;4.38;;;24.50;56.20;;;;;;6225650;28;80257;-57
2022/10/25 11:02:21;;;;;;;13.52;5.07;;;24.50;56.40;;;;;;6229881;28;81136;-49
2022/10/25 11:05:22;;;;;;;18.17;5.53;;;24.50;57.30;;;;;;6223532;28;83603;-51
2022/10/25 11:08:22;;;;;;;12.88;5.10;;;24.50;57.70;;;;;;6218633;28;81392;-49
2022/10/25 11:11:23;;;;;;;18.08;5.55;;;24.50;57.80;;;;;;6209207;28;80201;-50
2022/10/25 11:14:24;;;;;;;14.18;4.53;;;24.50;57.70;;;;;;6217078;28;80774;-49
2022/10/25 11:17:24;;;;;;;15.93;5.35;;;24.50;57.90;;;;;;6215443;28;81416;-52
2022/10/25 11:20:25;;;;;;;11.23;4.93;;;24.50;57.90;;;;;;6224320;28;80736;-49
2022/10/25 11:23:25;;;;;;;9.05;4.72;;;24.50;57.80;;;;;;6212961;28;80952;-49
2022/10/25 11:26:26;;;;;;;11.43;4.53;;;24.50;57.80;;;;;;6225679;28;80537;-50
2022/10/25 11:29:26;;;;;;;24.92;12.25;;;24.50;57.80;;;;;;6220645;28;80983;-52
2022/10/25 11:32:27;;;;;;;99.57;53.08;;;24.60;57.60;;;;;;6210213;28;83240;-50
2022/10/25 11:35:27;;;;;;;82.75;44.85;;;24.70;57.40;;;;;;6213935;28;83399;-49
2022/10/25 11:38:28;;;;;;;170.95;107.90;;;24.90;57.00;;;;;;6201081;28;84763;-59
2022/10/25 11:41:28;;;;;;;114.82;65.70;;;25.10;56.80;;;;;;6212783;28;85437;-57
2022/10/25 11:44:29;;;;;;;85.22;46.35;;;25.20;56.40;;;;;;6210550;28;85246;-58
2022/10/25 11:47:29;;;;;;;84.45;44.72;;;25.20;55.00;;;;;;6210709;28;90926;-59
2022/10/25 11:50:30;;;;;;;68.65;36.33;;;25.30;54.90;;;;;;6214708;28;83369;-58
2022/10/25 11:53:31;;;;;;;67.15;32.78;;;25.40;54.80;;;;;;6205429;28;82977;-59
2022/10/25 11:56:31;;;;;;;41.72;21.67;;;25.40;54.80;;;;;;6217251;28;90111;-61
2022/10/25 11:59:33;;;;;;;37.88;20.60;;;25.40;54.10;;;;;;6223813;28;85811;-60
2022/10/25 12:02:33;;;;;;;27.40;14.95;;;25.50;54.00;;;;;;6223302;28;82742;-59
2022/10/25 12:05:34;;;;;;;30.42;14.18;;;25.50;54.00;;;;;;6225000;28;83957;-60
2022/10/25 12:08:34;;;;;;;22.80;10.00;;;25.50;53.80;;;;;;6220969;28;83126;-60
2022/10/25 12:11:35;;;;;;;20.48;8.77;;;25.50;53.90;;;;;;6220590;28;86552;-59
2022/10/25 12:14:35;;;;;;;13.95;7.80;;;25.50;54.10;;;;;;6225253;28;82816;-56
2022/10/25 12:17:36;;;;;;;15.38;6.90;;;25.40;54.10;;;;;;6214265;28;81663;-59
2022/10/25 12:20:36;;;;;;;14.73;7.13;;;25.40;54.10;;;;;;6214926;28;81356;-55
2022/10/25 12:23:37;;;;;;;11.73;6.10;;;25.40;54.20;;;;;;6199565;28;84784;-60
2022/10/25 12:26:37;;;;;;;11.50;4.85;;;25.40;54.20;;;;;;6215703;28;80899;-59
2022/10/25 12:29:38;;;;;;;7.10;3.53;;;25.50;53.40;;;;;;6224030;28;80890;-59
2022/10/25 12:32:38;;;;;;;4.93;3.00;;;25.50;52.60;;;;;;6217276;28;80382;-57
2022/10/25 12:35:39;;;;;;;7.20;3.55;;;25.50;52.20;;;;;;6219601;28;80882;-53
2022/10/25 12:38:39;;;;;;;5.47;2.85;;;25.50;52.40;;;;;;6219591;28;87202;-50
2022/10/25 12:41:40;;;;;;;6.82;3.53;;;25.40;52.40;;;;;;6236265;27;80621;-51
2022/10/25 12:44:40;;;;;;;6.72;3.35;;;25.30;52.50;;;;;;6215592;28;80199;-51
2022/10/25 12:47:41;;;;;;;7.00;3.47;;;25.30;52.70;;;;;;6221108;28;80504;-52
2022/10/25 12:50:41;;;;;;;7.18;3.33;;;25.30;52.50;;;;;;6213307;28;80058;-51
2022/10/25 12:53:42;;;;;;;10.45;3.58;;;25.30;52.40;;;;;;6222734;28;86457;-60
2022/10/25 12:56:43;;;;;;;6.07;3.17;;;25.20;52.60;;;;;;6212687;28;80238;-59
2022/10/25 12:59:43;;;;;;;6.57;2.90;;;25.10;52.50;;;;;;6223986;28;80489;-59
2022/10/25 13:02:44;;;;;;;7.60;3.20;;;25.10;52.80;;;;;;6227712;28;82780;-60
2022/10/25 13:05:45;;;;;;;7.70;2.88;;;25.00;52.80;;;;;;6222067;28;81530;-60
2022/10/25 13:08:45;;;;;;;5.28;2.72;;;25.00;53.20;;;;;;6227565;28;81463;-60
2022/10/25 13:11:46;;;;;;;6.70;3.30;;;25.00;53.20;;;;;;6223465;28;80729;-58
2022/10/25 13:14:46;;;;;;;9.63;3.63;;;25.00;53.30;;;;;;6217009;28;86782;-57
2022/10/25 13:17:47;;;;;;;8.18;3.40;;;24.90;53.20;;;;;;6224104;28;80708;-59
2022/10/25 13:20:47;;;;;;;7.18;3.67;;;24.90;53.40;;;;;;6227207;28;80899;-58
2022/10/25 13:23:49;;;;;;;9.75;3.67;;;24.90;53.50;;;;;;6213999;28;80795;-57
2022/10/25 13:26:49;;;;;;;12.88;3.55;;;24.90;53.60;;;;;;6215944;28;81070;-58
2022/10/25 13:29:50;;;;;;;11.27;3.72;;;25.00;53.50;;;;;;6222465;28;84523;-48
2022/10/25 13:32:50;;;;;;;11.38;3.70;;;25.10;53.30;;;;;;6208835;28;81739;-49
2022/10/25 13:35:51;;;;;;;8.73;3.47;;;25.20;53.10;;;;;;6224188;28;86251;-49
2022/10/25 13:38:51;;;;;;;11.52;4.40;;;25.20;52.80;;;;;;6225115;28;80479;-52
2022/10/25 13:41:54;;;;;;;7.88;3.35;;;25.30;52.70;;;;;;6217693;28;86002;-50
2022/10/25 13:44:55;;;;;;;15.90;4.60;;;25.30;52.60;;;;;;6213898;28;80717;-48
2022/10/25 13:47:55;;;;;;;10.68;4.07;;;25.30;52.80;;;;;;6223970;28;83750;-50
2022/10/25 13:50:56;;;;;;;7.00;3.92;;;25.40;52.70;;;;;;6219440;28;80921;-51
2022/10/25 13:53:57;;;;;;;7.65;3.30;;;25.40;52.50;;;;;;6221431;28;80706;-49
2022/10/25 13:56:57;;;;;;;12.07;3.60;;;25.40;52.30;;;;;;6216739;28;80927;-48
2022/10/25 13:59:58;;;;;;;7.25;3.75;;;25.50;52.30;;;;;;6223612;28;80247;-50
2022/10/25 14:02:58;;;;;;;6.65;3.83;;;25.50;52.10;;;;;;6225845;28;80524;-49
2022/10/25 14:05:59;;;;;;;9.02;3.50;;;25.50;52.10;;;;;;6223888;28;81053;-48
2022/10/25 14:08:59;;;;;;;6.55;3.90;;;25.50;51.80;;;;;;6216821;28;81235;-53
2022/10/25 14:12:00;;;;;;;7.00;3.75;;;25.30;52.30;;;;;;6216099;28;80795;-52
2022/10/25 14:15:00;;;;;;;8.95;3.38;;;25.30;52.90;;;;;;6217198;28;81204;-52
2022/10/25 14:18:01;;;;;;;7.15;3.30;;;25.20;52.70;;;;;;6214425;28;80500;-51
2022/10/25 14:21:04;;;;;;;7.40;3.70;;;25.10;52.60;;;;;;6205496;28;80243;-50
2022/10/25 14:24:04;;;;;;;19.45;4.57;;;25.10;52.80;;;;;;6212280;28;80287;-49
2022/10/25 14:27:05;;;;;;;22.33;5.88;;;25.00;53.20;;;;;;6217477;28;81410;-49
2022/10/25 14:30:05;;;;;;;18.40;4.55;;;25.00;52.80;;;;;;6203361;28;80254;-49
2022/10/25 14:33:06;;;;;;;17.88;4.10;;;24.80;52.90;;;;;;6216804;28;80688;-49
2022/10/25 14:36:06;;;;;;;14.38;3.92;;;24.80;53.10;;;;;;6213804;28;82423;-49
2022/10/25 14:39:07;;;;;;;8.35;3.30;;;24.80;53.30;;;;;;6216066;28;80861;-50
2022/10/25 14:42:07;;;;;;;9.60;3.17;;;24.80;53.10;;;;;;6217397;28;80321;-47
2022/10/25 14:45:08;;;;;;;7.20;3.38;;;24.90;52.90;;;;;;6222467;28;87587;-51
2022/10/25 14:48:09;;;;;;;7.90;3.05;;;24.70;53.00;;;;;;6213829;28;84626;-49
2022/10/25 14:51:09;;;;;;;10.30;3.55;;;24.60;52.40;;;;;;6217740;28;82188;-50
2022/10/25 14:54:10;;;;;;;10.77;3.00;;;24.50;52.90;;;;;;6214384;28;81153;-48
2022/10/25 14:57:10;;;;;;;8.82;3.47;;;24.40;53.20;;;;;;6217590;28;85023;-49
2022/10/25 15:00:11;;;;;;;6.97;2.90;;;24.40;53.20;;;;;;6220548;28;80345;-50
2022/10/25 15:03:11;;;;;;;5.22;2.70;;;24.50;53.20;;;;;;6218610;28;80998;-50
2022/10/25 15:06:12;;;;;;;6.40;3.10;;;24.40;53.30;;;;;;6218364;28;80537;-49
2022/10/25 15:09:12;;;;;;;7.25;3.50;;;24.40;53.40;;;;;;6216784;28;84344;-49
2022/10/25 15:12:13;;;;;;;10.63;3.17;;;24.40;53.60;;;;;;6219990;28;80375;-50
2022/10/25 15:15:13;;;;;;;10.30;3.15;;;24.40;53.70;;;;;;6221603;28;80442;-52
2022/10/25 15:18:14;;;;;;;11.90;3.63;;;24.50;53.60;;;;;;6217067;28;80755;-54
2022/10/25 15:21:15;;;;;;;6.88;3.15;;;24.40;53.60;;;;;;6212985;28;80582;-58
2022/10/25 15:24:15;;;;;;;5.72;3.38;;;24.40;53.40;;;;;;6219893;28;81252;-58
2022/10/25 15:27:16;;;;;;;6.28;3.50;;;24.40;53.40;;;;;;6223391;28;80875;-58